1958 Severe Tropical Cyclone NOT_NAMED (1958364S13108)


IBTrACS version v04r00. Visit IBTrACS website for data access.
Please direct all questions to the IBTrACS Q and A forum

Storm track - Intensity - Wind Radii - Intensity Data - Source Data - All data

Summary Information

Storm ID 1958364S13108
Start Dec 29 23Z
Max Intensity 65 kt (Jan 1 00Z)
End Jan 4 23Z
ATCF IDs ,SH061959
Track status Best track data.

Storm track plot

Map of storm track

Intensity plots

Map of storm track

Radial wind information

No radial wind information for this storm


Position and Intensity Table

BASIN ISO_TIME_________ NATURE LAT LON WMO PRES BOM PRES DS824 WIND
degrees north degrees east mb mb kts
SI 1958-12-29 23:00:00 NR -13.00 107.70
SI 1958-12-30 00:00:00 TS -13.17 107.58 25
SI 01:00:00 TS -13.26 107.46 1002 1002 25
SI 03:00:00 TS -13.47 107.20 1001 25
SI 06:00:00 TS -13.74 106.82 1001 25
SI 09:00:00 TS -13.87 106.46 1000 25
SI 11:00:00 TS -13.89 106.22 1000 1000 25
SI 12:00:00 TS -13.84 106.10 25
SI 15:00:00 TS -13.59 105.74 25
SI 18:00:00 TS -13.27 105.37 25
SI 21:00:00 TS -12.99 105.02 25
SI 23:00:00 TS -12.81 104.72 25
SI 1958-12-31 00:00:00 TS -12.73 104.51 25
SI 01:00:00 TS -12.64 104.26 1000 1000 25
SI 03:00:00 TS -12.51 103.73 25
SI 06:00:00 TS -12.40 103.02 25
SI 09:00:00 TS -12.36 102.41 25
SI 11:00:00 TS -12.38 102.04 25
SI 12:00:00 TS -12.40 101.88 25
SI 15:00:00 TS -12.53 101.46 30
SI 18:00:00 TS -12.69 101.08 35
SI 21:00:00 TS -12.82 100.69 50
SI 23:00:00 TS -12.88 100.42 60
SI 1959-01-01 00:00:00 TS -12.91 100.29 65
SI 03:00:00 TS -12.96 99.89 50
SI 06:00:00 TS -13.00 99.49 35
SI 09:00:00 TS -13.00 99.09 35
SI 11:00:00 TS -13.00 98.82 35
SI 12:00:00 TS -13.00 98.68 35
SI 15:00:00 TS -13.04 98.24 35
SI 18:00:00 TS -13.08 97.85 35
SI 21:00:00 TS -13.08 97.52 35
SI 23:00:00 TS -13.09 97.41 35
SI 1959-01-02 00:00:00 TS -13.11 97.41 35
SI 03:00:00 TS -13.22 97.59 30
SI 06:00:00 TS -13.40 98.04 25
SI 09:00:00 TS -13.58 98.66 25
SI 11:00:00 TS -13.72 99.15 25
SI 12:00:00 TS -13.80 99.41 25
SI 15:00:00 TS -14.05 100.19 25
SI 18:00:00 TS -14.31 100.99 25
SI 21:00:00 TS -14.54 101.74 25
SI 23:00:00 TS -14.66 102.20 25
SI 1959-01-03 00:00:00 TS -14.71 102.40 25
SI 03:00:00 TS -14.79 102.94 25
SI 06:00:00 TS -14.80 103.40 25
SI 09:00:00 TS -14.78 103.82 25
SI 11:00:00 TS -14.73 104.08 25
SI 12:00:00 TS -14.69 104.21 25
SI 15:00:00 TS -14.51 104.62 25
SI 18:00:00 TS -14.32 105.01 25
SI 21:00:00 TS -14.21 105.37 25
SI 23:00:00 TS -14.19 105.59 25
SI 1959-01-04 00:00:00 TS -14.20 105.70 25
SI 03:00:00 TS -14.28 106.01 25
SI 06:00:00 TS -14.40 106.29 25
SI 09:00:00 TS -14.51 106.55 25
SI 11:00:00 TS -14.58 106.71 25
SI 12:00:00 TS -14.61 106.79 25
SI 15:00:00 TS -14.68 107.04 25
SI 18:00:00 TS -14.73 107.29 25
SI 21:00:00 NR -14.79 107.53
SI 23:00:00 NR -14.80 107.70

Source Information

Agency Information
USA bsh061959.txt
TOKYO
CMA
HKO
NEWDELHI
REUNION
BOM IDCKMSTM0S.csv:Line=2737:unnamed
NADI
WELLINGTON
DS824 s_hem.dat:754:07S
TD9636 cons_worldwide_trop_cyclone_18710101-19891231-006:Line=5293
TD9635
NEUMANN
MLC

All available IBTrACS Data

SEASON BASIN SUBBASIN ISO_TIME_________ NATURE LAT LON WMO PRES WMO AGENCY DIST2LAND LANDFALL IFLAG USA AGENCY USA ATCF_ID USA LAT USA LON USA SSHS BOM LAT BOM LON BOM PRES BOM PRES_METHOD DS824 LAT DS824 LON DS824 STAGE DS824 WIND TD9636 LAT TD9636 LON TD9636 STAGE STORM SPEED STORM DIR
Year degrees north degrees east mb km km degrees north degrees east 1 degrees north degrees east mb degrees north degrees east kts degrees north degrees east kts degrees
1959 SI WA 1958-12-29 23:00:00 NR -13.00 107.70 587 587 __________O___ -1 -13.00 107.70 7 12 214
1959 SI WA 1958-12-30 00:00:00 TS -13.17 107.58 611 611 O________OP___ jtwc_sh SH061959 -13.20 107.60 -1 -13.20 107.60 TC 25 -13.13 107.56 7 11 223
1959 SI WA 01:00:00 TS -13.26 107.46 1002 bom 623 623 P_____O__PP___ SH061959 -13.32 107.47 -1 -12.90 107.50 1002 -13.32 107.47 TC 25 -13.25 107.42 7 10 231
1959 SI WA 03:00:00 TS -13.47 107.20 651 651 P_____P__PP___ SH061959 -13.55 107.20 -1 -13.12 107.32 1001 -13.55 107.20 TC 25 -13.48 107.14 7 9 232
1959 SI WA 06:00:00 TS -13.74 106.82 680 680 O_____P__OP___ jtwc_sh SH061959 -13.80 106.80 -1 -13.45 107.05 1001 -13.80 106.80 TC 25 -13.76 106.73 7 8 241
1959 SI WA 09:00:00 TS -13.87 106.46 708 708 P_____P__PP___ SH061959 -13.89 106.40 -1 -13.78 106.78 1000 -13.89 106.40 TC 25 -13.91 106.34 7 7 255
1959 SI WA 11:00:00 TS -13.89 106.22 1000 bom 716 708 P_____O__PO___ SH061959 -13.85 106.13 -1 -14.00 106.60 1000 -13.85 106.13 TC 25 -13.90 106.10 1 7 275
1959 SI WA 12:00:00 TS -13.84 106.10 708 696 O_____P__OP___ jtwc_sh SH061959 -13.80 106.00 -1 -13.93 106.51 -13.80 106.00 TC 25 -13.86 105.98 1 8 303
1959 SI WA 15:00:00 TS -13.59 105.74 698 668 P_____P__PP___ SH061959 -13.54 105.60 -1 -13.71 106.23 -13.54 105.60 TC 25 -13.62 105.65 1 9 309
1959 SI WA 18:00:00 TS -13.27 105.37 669 643 O_____P__OP___ jtwc_sh SH061959 -13.20 105.20 -1 -13.50 105.95 -13.20 105.20 TC 25 -13.27 105.30 1 9 311
1959 SI WA 21:00:00 TS -12.99 105.02 645 629 P_____P__PP___ SH061959 -12.93 104.85 -1 -13.29 105.67 -12.93 104.85 TC 25 -12.90 104.91 1 9 306
1959 SI WA 23:00:00 TS -12.81 104.72 632 625 P_____P__PO___ SH061959 -12.77 104.57 -1 -13.14 105.49 -12.77 104.57 TC 25 -12.70 104.60 1 11 298
1959 SI WA 1958-12-31 00:00:00 TS -12.73 104.51 629 629 O_____P__OP___ jtwc_sh SH061959 -12.70 104.40 -1 -13.07 105.39 -12.70 104.40 TC 25 -12.64 104.41 1 14 291
1959 SI WA 01:00:00 TS -12.64 104.26 1000 bom 626 626 P_____O__PP___ SH061959 -12.63 104.19 -1 -13.00 105.30 1000 4 -12.63 104.19 TC 25 -12.58 104.20 1 16 286
1959 SI WA 03:00:00 TS -12.51 103.73 643 643 P________PP___ SH061959 -12.51 103.72 -1 -12.51 103.72 TC 25 -12.49 103.77 1 15 281
1959 SI WA 06:00:00 TS -12.40 103.02 672 672 O________OP___ jtwc_sh SH061959 -12.40 103.00 -1 -12.40 103.00 TC 25 -12.40 103.08 1 13 276
1959 SI WA 09:00:00 TS -12.36 102.41 698 698 P________PP___ SH061959 -12.35 102.41 -1 -12.35 102.41 TC 25 -12.38 102.41 1 11 271
1959 SI WA 11:00:00 TS -12.38 102.04 718 718 P________PO___ SH061959 -12.37 102.06 -1 -12.37 102.06 TC 25 -12.40 102.00 1 10 265
1959 SI WA 12:00:00 TS -12.40 101.88 724 724 O________OP___ jtwc_sh SH061959 -12.40 101.90 -1 -12.40 101.90 TC 25 -12.42 101.83 1 9 255
1959 SI WA 15:00:00 TS -12.53 101.46 756 756 P________PP___ SH061959 -12.53 101.48 -1 -12.53 101.48 TC 30 -12.52 101.39 1 8 250
1959 SI WA 18:00:00 TS -12.69 101.08 799 799 O________OP___ jtwc_sh SH061959 -12.70 101.10 -1 -12.70 101.10 TC 35 -12.67 101.00 1 8 249
1959 SI WA 21:00:00 TS -12.82 100.69 833 833 P________PP___ SH061959 -12.81 100.70 -1 -12.81 100.70 TC 50 -12.82 100.64 1 8 253
1959 SI WA 23:00:00 TS -12.88 100.42 862 862 P________PO___ SH061959 -12.87 100.43 -1 -12.87 100.43 TC 60 -12.90 100.40 4 8 257
1959 SI WA 1959-01-01 00:00:00 TS -12.91 100.29 869 869 O________OP___ jtwc_sh SH061959 -12.90 100.30 -1 -12.90 100.30 TC 65 -12.92 100.26 4 8 261
1959 SI WA 03:00:00 TS -12.96 99.89 905 905 P________PP___ SH061959 -12.96 99.90 -1 -12.96 99.90 TC 50 -12.96 99.86 4 8 263
1959 SI WA 06:00:00 TS -13.00 99.49 933 933 O________OP___ jtwc_sh SH061959 -13.00 99.50 -1 -13.00 99.50 TC 35 -12.98 99.45 4 8 268
1959 SI WA 09:00:00 TS -13.00 99.09 963 963 P________PP___ SH061959 -13.00 99.10 -1 -13.00 99.10 TC 35 -12.99 99.06 4 8 270
1959 SI WA 11:00:00 TS -13.00 98.82 986 986 P________PO___ SH061959 -13.00 98.83 -1 -13.00 98.83 TC 35 -13.00 98.80 2 8 270
1959 SI WA 12:00:00 TS -13.00 98.68 994 994 O________OP___ jtwc_sh SH061959 -13.00 98.70 -1 -13.00 98.70 TC 35 -13.00 98.64 2 9 266
1959 SI WA 15:00:00 TS -13.04 98.24 1034 1034 P________PP___ SH061959 -13.05 98.28 -1 -13.05 98.28 TC 35 -13.01 98.14 2 8 264
1959 SI WA 18:00:00 TS -13.08 97.85 1066 1066 O________OP___ jtwc_sh SH061959 -13.10 97.90 -1 -13.10 97.90 TC 35 -13.02 97.72 2 7 267
1959 SI WA 21:00:00 TS -13.08 97.52 1099 1099 P________PP___ SH061959 -13.08 97.55 -1 -13.08 97.55 TC 35 -13.05 97.45 2 5 269
1959 SI WA 23:00:00 TS -13.09 97.41 1108 1108 P________PO___ SH061959 -13.09 97.41 -1 -13.09 97.41 TC 35 -13.10 97.40 2 2 256
1959 SI WA 1959-01-02 00:00:00 TS -13.11 97.41 1108 1098 O________OP___ jtwc_sh SH061959 -13.10 97.40 -1 -13.10 97.40 TC 35 -13.13 97.43 2 3 128
1959 SI WA 03:00:00 TS -13.22 97.59 1098 1080 P________PP___ SH061959 -13.22 97.56 -1 -13.22 97.56 TC 30 -13.24 97.68 2 7 115
1959 SI WA 06:00:00 TS -13.40 98.04 1080 1049 O________OP___ jtwc_sh SH061959 -13.40 98.00 -1 -13.40 98.00 TC 25 -13.38 98.14 2 11 109
1959 SI WA 09:00:00 TS -13.58 98.66 1042 1021 P________PP___ SH061959 -13.59 98.63 -1 -13.59 98.63 TC 25 -13.56 98.75 2 14 107
1959 SI WA 11:00:00 TS -13.72 99.15 1014 1008 P________PO___ SH061959 -13.72 99.13 -1 -13.72 99.13 TC 25 -13.70 99.20 1 15 107
1959 SI WA 12:00:00 TS -13.80 99.41 1008 980 O________OP___ jtwc_sh SH061959 -13.80 99.40 -1 -13.80 99.40 TC 25 -13.78 99.42 1 16 108
1959 SI WA 15:00:00 TS -14.05 100.19 983 958 P________PP___ SH061959 -14.05 100.20 -1 -14.05 100.20 TC 25 -14.06 100.16 1 16 108
1959 SI WA 18:00:00 TS -14.31 100.99 957 943 O________OP___ jtwc_sh SH061959 -14.30 101.00 -1 -14.30 101.00 TC 25 -14.34 100.96 1 16 108
1959 SI WA 21:00:00 TS -14.54 101.74 943 933 P________PP___ SH061959 -14.53 101.74 -1 -14.53 101.74 TC 25 -14.58 101.73 1 15 107
1959 SI WA 23:00:00 TS -14.66 102.20 937 926 P________PO___ SH061959 -14.65 102.19 -1 -14.65 102.19 TC 25 -14.70 102.20 1 13 105
1959 SI WA 1959-01-03 00:00:00 TS -14.71 102.40 926 912 O________OP___ jtwc_sh SH061959 -14.70 102.40 -1 -14.70 102.40 TC 25 -14.74 102.40 1 11 100
1959 SI WA 03:00:00 TS -14.79 102.94 912 891 P________PP___ SH061959 -14.79 102.95 -1 -14.79 102.95 TC 25 -14.80 102.94 1 10 95
1959 SI WA 06:00:00 TS -14.80 103.40 891 875 O________OP___ jtwc_sh SH061959 -14.80 103.40 -1 -14.80 103.40 TC 25 -14.80 103.41 1 8 89
1959 SI WA 09:00:00 TS -14.78 103.82 875 855 P________PP___ SH061959 -14.79 103.81 -1 -14.79 103.81 TC 25 -14.75 103.84 1 8 84
1959 SI WA 11:00:00 TS -14.73 104.08 855 852 P________PO___ SH061959 -14.74 104.07 -1 -14.74 104.07 TC 25 -14.70 104.10 1 8 77
1959 SI WA 12:00:00 TS -14.69 104.21 852 819 O________OP___ jtwc_sh SH061959 -14.70 104.20 -1 -14.70 104.20 TC 25 -14.66 104.24 1 9 67
1959 SI WA 15:00:00 TS -14.51 104.62 819 787 P________PP___ SH061959 -14.50 104.61 -1 -14.50 104.61 TC 25 -14.52 104.65 1 9 64
1959 SI WA 18:00:00 TS -14.32 105.01 787 769 O________OP___ jtwc_sh SH061959 -14.30 105.00 -1 -14.30 105.00 TC 25 -14.37 105.03 1 8 68
1959 SI WA 21:00:00 TS -14.21 105.37 769 766 P________PP___ SH061959 -14.20 105.36 -1 -14.20 105.36 TC 25 -14.24 105.38 1 7 78
1959 SI WA 23:00:00 TS -14.19 105.59 766 763 P________PO___ SH061959 -14.19 105.59 -1 -14.19 105.59 TC 25 -14.20 105.60 1 6 88
1959 SI WA 1959-01-04 00:00:00 TS -14.20 105.70 763 756 O________OP___ jtwc_sh SH061959 -14.20 105.70 -1 -14.20 105.70 TC 25 -14.21 105.71 1 6 102
1959 SI WA 03:00:00 TS -14.28 106.01 764 759 P________PP___ SH061959 -14.28 106.01 -1 -14.28 106.01 TC 25 -14.27 106.00 1 6 109
1959 SI WA 06:00:00 TS -14.40 106.29 768 765 O________OP___ jtwc_sh SH061959 -14.40 106.30 -1 -14.40 106.30 TC 25 -14.39 106.28 1 6 114
1959 SI WA 09:00:00 TS -14.51 106.55 772 772 P________PP___ SH061959 -14.51 106.56 -1 -14.51 106.56 TC 25 -14.52 106.53 1 5 114
1959 SI WA 11:00:00 TS -14.58 106.71 782 780 P________PO___ SH061959 -14.57 106.72 -1 -14.57 106.72 TC 25 -14.60 106.70 1 5 113
1959 SI WA 12:00:00 TS -14.61 106.79 780 778 O________OP___ jtwc_sh SH061959 -14.60 106.80 -1 -14.60 106.80 TC 25 -14.63 106.78 1 5 108
1959 SI WA 15:00:00 TS -14.68 107.04 787 782 P________PP___ SH061959 -14.66 107.05 -1 -14.66 107.05 TC 25 -14.71 107.03 1 5 104
1959 SI WA 18:00:00 TS -14.73 107.29 782 780 O________OP___ jtwc_sh SH061959 -14.70 107.30 -1 -14.70 107.30 TC 25 -14.76 107.28 1 5 103
1959 SI WA 21:00:00 NR -14.79 107.53 790 787 __________P___ SH061959 -1 TC -14.79 107.53 1 5 100
1959 SI WA 23:00:00 NR -14.80 107.70 787 __________O___ SH061959 -1 TC -14.80 107.70 1 5 95